Time;durP1;ratioP1;P1;durP2;ratioP2;P2;SDS_P1;SDS_P2;PMS_P1;PMS_P2;Temp;Humidity;BMP_temperature;BMP_pressure;BME280_temperature;BME280_humidity;BME280_pressure;Samples;Min_cycle;Max_cycle;Signal;HPM_P1;HPM_P2
2022/09/25 00:01:00;;;;;;;24.95;23.58;;;14.90;91.00;;;;;;5018416;28;20033;-76
2022/09/25 00:03:27;;;;;;;23.48;22.05;;;14.90;91.00;;;;;;5030897;28;20478;-76
2022/09/25 00:06:00;;;;;;;29.17;27.52;;;15.00;90.70;;;;;;5030307;28;20025;-76
2022/09/25 00:08:26;;;;;;;29.60;28.05;;;15.10;90.70;;;;;;5030585;28;20044;-76
2022/09/25 00:10:52;;;;;;;25.00;23.63;;;15.20;90.50;;;;;;5030276;28;20036;-76
2022/09/25 00:13:19;;;;;;;38.17;36.22;;;15.20;90.50;;;;;;5031859;28;20501;-76
2022/09/25 00:15:50;;;;;;;34.00;32.20;;;15.30;90.10;;;;;;5029956;28;20037;-76
2022/09/25 00:18:16;;;;;;;37.25;35.30;;;15.40;90.10;;;;;;5030382;28;20032;-76
2022/09/25 00:20:42;;;;;;;34.22;32.33;;;15.40;90.10;;;;;;5030094;28;20037;-76
2022/09/25 00:23:08;;;;;;;28.10;26.65;;;15.40;90.00;;;;;;5013901;28;20046;-76
2022/09/25 00:25:35;;;;;;;36.15;34.25;;;15.30;90.20;;;;;;5030104;28;20381;-75
2022/09/25 00:28:01;;;;;;;42.13;39.85;;;15.20;90.60;;;;;;5021532;28;20034;-76
2022/09/25 00:30:27;;;;;;;34.38;32.35;;;15.10;90.90;;;;;;5006756;28;20041;-76
2022/09/25 00:32:53;;;;;;;38.75;36.50;;;15.20;90.70;;;;;;4991898;28;20387;-76
2022/09/25 00:35:20;;;;;;;34.50;32.63;;;15.20;90.70;;;;;;4990712;28;20038;-76
2022/09/25 00:37:46;;;;;;;31.98;30.20;;;15.10;90.80;;;;;;4992057;28;20034;-76
2022/09/25 00:40:12;;;;;;;31.02;29.25;;;15.10;90.80;;;;;;4992177;28;20033;-76
2022/09/25 00:42:39;;;;;;;29.05;27.55;;;15.10;91.10;;;;;;5010397;28;20030;-76
2022/09/25 00:45:14;;;;;;;23.05;21.73;;;15.00;91.20;;;;;;5008978;28;20045;-76
2022/09/25 00:48:02;;;;;;;20.58;19.55;;;15.00;91.40;;;;;;5009693;28;20026;-76
2022/09/25 00:50:52;;;;;;;22.58;21.38;;;15.00;91.40;;;;;;5009963;28;20498;-76
2022/09/25 00:53:20;;;;;;;22.85;21.60;;;15.00;91.00;;;;;;5011509;28;20057;-76
2022/09/25 00:55:46;;;;;;;20.50;19.42;;;15.10;91.20;;;;;;5011274;28;20364;-76
2022/09/25 00:58:13;;;;;;;19.15;17.95;;;14.90;91.60;;;;;;5009945;28;20045;-76
2022/09/25 01:00:39;;;;;;;18.35;17.33;;;14.90;91.90;;;;;;5008426;28;20026;-76
2022/09/25 01:03:05;;;;;;;20.17;19.17;;;14.90;92.20;;;;;;5009659;28;20040;-76
2022/09/25 01:05:33;;;;;;;19.58;18.58;;;14.90;91.80;;;;;;5010006;28;20033;-76
2022/09/25 01:08:00;;;;;;;23.30;22.08;;;14.90;92.10;;;;;;5010189;28;20022;-76
2022/09/25 01:10:26;;;;;;;22.95;21.67;;;14.90;91.90;;;;;;5009895;28;20033;-76
2022/09/25 01:12:53;;;;;;;22.85;21.65;;;14.90;92.10;;;;;;5011126;28;20042;-76
2022/09/25 01:15:20;;;;;;;25.58;24.20;;;14.90;92.20;;;;;;5009760;28;20034;-76
2022/09/25 01:17:49;;;;;;;25.27;23.95;;;14.90;92.00;;;;;;5009736;28;20030;-76
2022/09/25 01:20:35;;;;;;;24.35;22.98;;;14.90;91.90;;;;;;5011146;28;20479;-76
2022/09/25 01:23:35;;;;;;;28.85;27.17;;;14.90;91.80;;;;;;5010102;28;20490;-76
2022/09/25 01:26:38;;;;;;;28.80;27.30;;;14.90;92.10;;;;;;5011177;28;20026;-76
2022/09/25 01:29:11;;;;;;;32.55;30.58;;;14.80;92.30;;;;;;5010966;28;20044;-76
2022/09/25 01:31:46;;;;;;;31.98;29.65;;;14.70;92.40;;;;;;5021790;28;20046;-76
2022/09/25 01:34:27;;;;;;;27.88;26.20;;;14.70;92.50;;;;;;5029782;28;20438;-76
2022/09/25 01:37:00;;;;;;;27.38;25.45;;;14.60;92.80;;;;;;5013750;28;20021;-76
2022/09/25 01:39:31;;;;;;;28.95;27.00;;;14.70;92.50;;;;;;5013619;28;20029;-76
2022/09/25 01:42:12;;;;;;;31.05;29.02;;;14.80;92.50;;;;;;4998845;28;20507;-76
2022/09/25 01:44:56;;;;;;;25.55;23.90;;;14.80;92.50;;;;;;5019593;28;20072;-76
2022/09/25 01:47:26;;;;;;;28.02;26.23;;;14.70;92.70;;;;;;5048526;28;20037;-76
2022/09/25 01:50:07;;;;;;;25.63;24.08;;;14.60;92.60;;;;;;5033712;28;20038;-76
2022/09/25 01:52:45;;;;;;;27.92;26.23;;;14.60;92.70;;;;;;5033505;28;20476;-76
2022/09/25 01:55:25;;;;;;;31.65;29.40;;;14.50;93.10;;;;;;5033512;28;20111;-76
2022/09/25 01:58:02;;;;;;;31.70;29.75;;;14.60;92.90;;;;;;5033415;28;20036;-76
2022/09/25 02:00:29;;;;;;;26.83;24.88;;;14.60;92.70;;;;;;5032428;28;20029;-76
2022/09/25 02:03:17;;;;;;;28.10;26.25;;;14.60;92.80;;;;;;5016053;28;20420;-76
2022/09/25 02:05:45;;;;;;;29.20;27.58;;;14.60;92.70;;;;;;5019793;28;20506;-76
2022/09/25 02:08:18;;;;;;;33.28;31.05;;;14.50;92.90;;;;;;5016919;28;20025;-76
2022/09/25 02:10:48;;;;;;;28.67;26.83;;;14.60;92.80;;;;;;5033066;28;20034;-76
2022/09/25 02:13:16;;;;;;;25.10;23.52;;;14.60;92.70;;;;;;5017022;28;20065;-76
2022/09/25 02:15:45;;;;;;;28.45;26.73;;;14.60;92.80;;;;;;5032000;28;20398;-76
2022/09/25 02:21:06;;;;;;;26.05;24.08;;;14.60;93.00;;;;;;5037594;28;20048;-76
2022/09/25 02:23:49;;;;;;;26.52;24.85;;;14.60;92.70;;;;;;5034053;28;20037;-76
2022/09/25 02:26:36;;;;;;;26.17;24.52;;;14.60;93.20;;;;;;5032913;28;20378;-76
2022/09/25 02:29:02;;;;;;;26.20;24.60;;;14.60;93.00;;;;;;5018753;28;20033;-76
2022/09/25 02:31:59;;;;;;;36.88;34.90;;;14.60;93.20;;;;;;5015770;28;20037;-76
2022/09/25 02:34:25;;;;;;;37.20;35.13;;;14.60;93.40;;;;;;5024487;28;20068;-76
2022/09/25 02:36:51;;;;;;;36.17;33.90;;;14.60;92.90;;;;;;5032492;28;20040;-76
2022/09/25 02:39:20;;;;;;;37.83;35.78;;;14.60;93.10;;;;;;5033950;28;20041;-76
2022/09/25 02:42:17;;;;;;;28.58;26.73;;;14.60;93.00;;;;;;5002947;28;20037;-76
2022/09/25 02:44:58;;;;;;;27.60;25.90;;;14.60;92.80;;;;;;5022744;28;20041;-76
2022/09/25 02:47:55;;;;;;;38.25;35.85;;;14.60;92.90;;;;;;5048027;28;20040;-76
2022/09/25 02:50:23;;;;;;;25.70;23.67;;;14.60;93.00;;;;;;5033522;28;20033;-76
2022/09/25 02:53:10;;;;;;;27.55;25.73;;;14.50;93.40;;;;;;5032224;28;20037;-76
2022/09/25 02:55:47;;;;;;;31.35;29.33;;;14.50;93.30;;;;;;5032430;28;20017;-76
2022/09/25 02:58:39;;;;;;;35.67;33.42;;;14.50;93.80;;;;;;5030597;28;20025;-76
2022/09/25 03:01:06;;;;;;;48.85;46.00;;;14.40;93.50;;;;;;5031734;28;20033;-76
2022/09/25 03:03:33;;;;;;;45.15;42.20;;;14.40;93.50;;;;;;5015735;28;20022;-76
2022/09/25 03:05:59;;;;;;;42.38;39.75;;;14.40;93.60;;;;;;5014726;28;20033;-75
2022/09/25 03:08:38;;;;;;;48.22;45.22;;;14.40;94.30;;;;;;5032160;28;20041;-75
2022/09/25 03:11:05;;;;;;;48.92;45.97;;;14.40;93.80;;;;;;5017300;28;20029;-75
2022/09/25 03:13:32;;;;;;;42.65;40.08;;;14.40;93.90;;;;;;5031396;28;20041;-75
2022/09/25 03:16:11;;;;;;;25.80;23.90;;;14.30;93.90;;;;;;5031575;28;20025;-75
2022/09/25 03:18:37;;;;;;;17.60;16.40;;;14.40;94.00;;;;;;5000636;28;20509;-76
2022/09/25 03:21:03;;;;;;;22.52;20.40;;;14.40;94.10;;;;;;5015460;28;20032;-76
2022/09/25 03:23:31;;;;;;;23.27;21.65;;;14.30;94.40;;;;;;5031745;28;20355;-76
2022/09/25 03:25:57;;;;;;;42.03;39.35;;;14.30;94.50;;;;;;5031764;28;20030;-76
2022/09/25 03:28:23;;;;;;;49.30;46.50;;;14.30;94.20;;;;;;5032235;28;20040;-75
2022/09/25 03:30:57;;;;;;;44.17;41.30;;;14.30;94.20;;;;;;5057326;28;20037;-75
2022/09/25 03:33:23;;;;;;;26.30;24.58;;;14.30;94.10;;;;;;5011947;28;20030;-75
2022/09/25 03:36:17;;;;;;;40.65;37.97;;;14.20;94.30;;;;;;5011781;28;20030;-76
2022/09/25 03:38:44;;;;;;;38.60;36.35;;;14.20;94.10;;;;;;5011837;28;20026;-76
2022/09/25 03:41:15;;;;;;;36.53;34.40;;;14.20;94.40;;;;;;5011532;28;20045;-75
2022/09/25 03:43:42;;;;;;;41.88;39.20;;;14.10;94.40;;;;;;5013156;28;20494;-75
2022/09/25 03:46:12;;;;;;;43.50;41.00;;;14.10;94.30;;;;;;5030964;28;20034;-75
2022/09/25 03:48:38;;;;;;;44.33;41.63;;;14.10;94.40;;;;;;5017660;28;20060;-75
2022/09/25 03:51:05;;;;;;;30.15;28.15;;;14.10;94.30;;;;;;5012762;28;20379;-75
2022/09/25 03:53:32;;;;;;;45.35;42.47;;;14.10;94.10;;;;;;5012562;28;20034;-75
2022/09/25 03:56:05;;;;;;;16.27;15.05;;;14.10;94.30;;;;;;5011438;28;20037;-75
2022/09/25 03:58:31;;;;;;;32.60;30.42;;;14.10;94.10;;;;;;5011419;28;20022;-75
2022/09/25 04:00:58;;;;;;;15.57;14.25;;;14.10;94.20;;;;;;5012103;28;20038;-75
2022/09/25 04:03:26;;;;;;;19.45;18.25;;;14.00;94.00;;;;;;4995058;28;20034;-75
2022/09/25 04:05:56;;;;;;;44.20;41.88;;;14.00;94.10;;;;;;5013053;28;20042;-75
2022/09/25 04:08:25;;;;;;;34.65;32.55;;;14.10;94.00;;;;;;5009971;28;20022;-75
2022/09/25 04:10:55;;;;;;;33.97;31.77;;;14.00;93.80;;;;;;5011934;28;20022;-76
2022/09/25 04:13:22;;;;;;;31.05;29.25;;;14.00;93.80;;;;;;5011125;28;20394;-75
2022/09/25 04:15:48;;;;;;;19.77;18.38;;;14.10;93.70;;;;;;5010588;28;20034;-75
2022/09/25 04:18:14;;;;;;;29.67;27.33;;;14.00;93.70;;;;;;4994810;28;20490;-75
2022/09/25 04:20:40;;;;;;;26.45;24.55;;;14.00;93.70;;;;;;5011155;28;20100;-75
2022/09/25 04:23:07;;;;;;;22.25;20.23;;;14.10;93.60;;;;;;5010920;28;20030;-75
2022/09/25 04:25:33;;;;;;;26.65;24.88;;;14.00;93.60;;;;;;5010688;28;20030;-76
2022/09/25 04:27:59;;;;;;;24.63;23.10;;;14.00;93.70;;;;;;4994521;28;20034;-75
2022/09/25 04:30:26;;;;;;;30.73;28.90;;;14.00;93.90;;;;;;5013508;28;20037;-76
2022/09/25 04:35:37;;;;;;;30.88;28.85;;;14.10;93.80;;;;;;5038289;28;20486;-76
2022/09/25 04:38:03;;;;;;;29.23;26.95;;;14.10;93.70;;;;;;5030669;28;20044;-75
2022/09/25 04:40:29;;;;;;;30.50;28.52;;;14.10;93.60;;;;;;5010001;28;20477;-75
2022/09/25 04:42:56;;;;;;;25.88;24.08;;;14.10;93.80;;;;;;5010531;28;20467;-75
2022/09/25 04:45:22;;;;;;;28.17;26.23;;;14.10;93.40;;;;;;5028346;28;20049;-76
2022/09/25 04:47:48;;;;;;;22.38;20.75;;;14.10;93.60;;;;;;5044298;28;20089;-75
2022/09/25 04:50:15;;;;;;;29.13;26.70;;;14.10;93.50;;;;;;5013769;28;20052;-76
2022/09/25 04:52:41;;;;;;;25.67;23.90;;;14.10;93.60;;;;;;5030391;28;20049;-75
2022/09/25 04:55:07;;;;;;;24.40;22.50;;;14.10;93.60;;;;;;5029848;28;20025;-75
2022/09/25 04:57:34;;;;;;;22.73;21.23;;;14.10;93.50;;;;;;5031310;28;20044;-75
2022/09/25 05:00:00;;;;;;;19.58;17.85;;;14.10;93.30;;;;;;5031296;28;20466;-76
2022/09/25 05:02:27;;;;;;;22.98;21.17;;;14.10;93.60;;;;;;5030783;28;20034;-75
2022/09/25 05:04:53;;;;;;;23.33;21.63;;;14.10;93.70;;;;;;4997349;28;20037;-76
2022/09/25 05:07:19;;;;;;;24.77;23.10;;;14.10;93.70;;;;;;5030193;28;20037;-75
2022/09/25 05:09:45;;;;;;;31.40;29.15;;;14.00;93.90;;;;;;5031054;28;20387;-75
2022/09/25 05:12:11;;;;;;;33.72;31.75;;;14.10;93.80;;;;;;5012129;28;20033;-76
2022/09/25 05:14:39;;;;;;;40.63;38.13;;;14.10;93.80;;;;;;5030032;28;20474;-75
2022/09/25 05:17:07;;;;;;;38.83;36.53;;;14.10;93.80;;;;;;5030572;28;20038;-75
2022/09/25 05:19:33;;;;;;;35.55;32.95;;;14.10;93.80;;;;;;5030973;28;20033;-76
2022/09/25 05:22:00;;;;;;;28.40;26.25;;;14.10;93.80;;;;;;5029745;28;20034;-75
2022/09/25 05:24:26;;;;;;;22.65;20.88;;;14.10;93.90;;;;;;5030702;28;20387;-75
2022/09/25 05:26:52;;;;;;;24.70;23.00;;;14.10;93.70;;;;;;5030998;28;20040;-75
2022/09/25 05:29:18;;;;;;;20.40;19.05;;;14.10;94.00;;;;;;5030999;28;20426;-76
2022/09/25 05:31:47;;;;;;;29.20;27.10;;;14.00;94.10;;;;;;5029074;28;20041;-75
2022/09/25 05:34:13;;;;;;;22.67;21.23;;;13.90;94.40;;;;;;5011929;28;20049;-76
2022/09/25 05:36:39;;;;;;;28.33;26.08;;;14.00;94.30;;;;;;5013284;28;20037;-75
2022/09/25 05:39:05;;;;;;;26.67;24.27;;;14.00;94.30;;;;;;5030692;28;20033;-76
2022/09/25 05:41:33;;;;;;;27.10;25.33;;;14.00;94.30;;;;;;5018366;28;20041;-76
2022/09/25 05:44:05;;;;;;;23.88;22.38;;;14.00;94.40;;;;;;5012825;28;20041;-76
2022/09/25 05:46:32;;;;;;;17.33;15.90;;;14.00;94.20;;;;;;5041254;28;20064;-76
2022/09/25 05:48:59;;;;;;;19.00;17.20;;;14.00;94.00;;;;;;5032850;28;20060;-76
2022/09/25 05:51:25;;;;;;;17.83;16.42;;;14.00;94.10;;;;;;5031078;28;20036;-76
2022/09/25 05:53:54;;;;;;;19.70;18.08;;;14.00;94.00;;;;;;5029109;28;20037;-76
2022/09/25 05:56:23;;;;;;;25.63;23.95;;;14.00;94.10;;;;;;5013088;28;20048;-76
2022/09/25 05:58:50;;;;;;;23.27;21.50;;;14.00;94.30;;;;;;5030805;28;20029;-76
2022/09/25 06:01:17;;;;;;;21.02;19.25;;;14.00;94.10;;;;;;5030070;28;20051;-76
2022/09/25 06:03:43;;;;;;;27.00;24.52;;;14.00;94.10;;;;;;5030982;28;20026;-76
2022/09/25 06:06:09;;;;;;;24.17;21.85;;;14.00;94.10;;;;;;5030633;28;20038;-76
2022/09/25 06:08:35;;;;;;;27.85;25.77;;;14.10;94.10;;;;;;5012673;28;20045;-76
2022/09/25 06:11:01;;;;;;;23.48;21.67;;;14.10;94.20;;;;;;5029446;28;20049;-76
2022/09/25 06:13:31;;;;;;;16.20;14.90;;;14.10;94.00;;;;;;5012955;28;20045;-76
2022/09/25 06:15:57;;;;;;;23.58;21.58;;;14.10;93.80;;;;;;5027140;28;20022;-76
2022/09/25 06:18:24;;;;;;;23.75;22.13;;;14.10;93.90;;;;;;5012939;28;20049;-76
2022/09/25 06:20:50;;;;;;;21.85;19.77;;;14.10;94.00;;;;;;5030581;28;20052;-76
2022/09/25 06:23:17;;;;;;;19.50;17.67;;;14.10;93.80;;;;;;5028991;28;20037;-76
2022/09/25 06:25:43;;;;;;;19.20;17.27;;;14.10;93.80;;;;;;5031083;28;20049;-76
2022/09/25 06:28:09;;;;;;;16.65;15.18;;;14.10;93.70;;;;;;5029038;28;20033;-76
2022/09/25 06:30:35;;;;;;;18.60;17.10;;;14.10;93.60;;;;;;5039014;28;20048;-76
2022/09/25 06:33:08;;;;;;;22.00;20.08;;;14.10;93.70;;;;;;5013410;28;20471;-76
2022/09/25 06:35:44;;;;;;;16.33;14.82;;;14.10;93.80;;;;;;5012700;28;20029;-76
2022/09/25 06:38:10;;;;;;;19.05;17.23;;;14.10;93.50;;;;;;5013074;28;20041;-76
2022/09/25 06:40:39;;;;;;;28.13;25.90;;;14.10;93.50;;;;;;5012892;28;20515;-76
2022/09/25 06:43:06;;;;;;;28.77;26.40;;;14.20;93.60;;;;;;4996793;28;20049;-76
2022/09/25 06:45:32;;;;;;;18.55;16.30;;;14.30;93.50;;;;;;5028731;28;20030;-76
2022/09/25 06:48:05;;;;;;;27.52;25.58;;;14.20;93.50;;;;;;5024245;28;20056;-76
2022/09/25 06:50:37;;;;;;;20.92;19.15;;;14.20;93.80;;;;;;5012329;28;20026;-76
2022/09/25 06:53:03;;;;;;;15.95;14.52;;;14.20;93.60;;;;;;5012999;28;20052;-76
2022/09/25 06:55:31;;;;;;;17.15;15.45;;;14.30;93.40;;;;;;5012581;28;20037;-76
2022/09/25 06:57:57;;;;;;;17.35;15.85;;;14.20;93.40;;;;;;4996484;28;20052;-76
2022/09/25 07:00:23;;;;;;;16.77;15.25;;;14.20;93.30;;;;;;5012092;28;20479;-76
2022/09/25 07:05:34;;;;;;;21.90;20.02;;;14.20;93.10;;;;;;5000986;28;20041;-76
2022/09/25 07:08:00;;;;;;;23.05;21.05;;;14.20;93.10;;;;;;5013659;28;20037;-76
2022/09/25 07:10:26;;;;;;;21.85;20.15;;;14.20;93.20;;;;;;5012321;28;20404;-76
2022/09/25 07:12:53;;;;;;;22.33;20.05;;;14.20;93.10;;;;;;4995975;28;20033;-76
2022/09/25 07:15:19;;;;;;;24.15;22.05;;;14.30;92.90;;;;;;5011823;28;20041;-76
2022/09/25 07:17:45;;;;;;;23.80;21.85;;;14.20;93.10;;;;;;5012107;28;20387;-76
2022/09/25 07:20:14;;;;;;;22.95;21.08;;;14.30;93.10;;;;;;5012613;28;20042;-76
2022/09/25 07:22:40;;;;;;;20.92;19.08;;;14.30;93.30;;;;;;4996358;28;20082;-76
2022/09/25 07:25:07;;;;;;;24.05;22.17;;;14.40;93.20;;;;;;5011705;28;20065;-76
2022/09/25 07:27:33;;;;;;;24.55;22.45;;;14.40;92.70;;;;;;5013137;28;20912;-76
2022/09/25 07:30:00;;;;;;;26.92;24.88;;;14.60;92.50;;;;;;5012158;28;20030;-76
2022/09/25 07:32:26;;;;;;;20.90;19.10;;;14.60;92.50;;;;;;5011389;28;20033;-76
2022/09/25 07:34:52;;;;;;;21.50;19.60;;;14.70;92.70;;;;;;5011758;28;20037;-76
2022/09/25 07:37:18;;;;;;;24.17;22.45;;;14.80;92.30;;;;;;5011764;28;20080;-76
2022/09/25 07:39:44;;;;;;;27.92;26.10;;;14.70;92.00;;;;;;5012971;28;20029;-76
2022/09/25 07:42:10;;;;;;;20.80;19.48;;;14.70;91.90;;;;;;5011972;28;20459;-76
2022/09/25 07:44:36;;;;;;;20.08;18.48;;;14.60;92.20;;;;;;5021579;28;20581;-76
2022/09/25 07:47:02;;;;;;;18.33;16.20;;;14.60;92.20;;;;;;5031752;28;20089;-76
2022/09/25 07:49:30;;;;;;;21.00;19.35;;;14.60;92.30;;;;;;5012159;28;20521;-76
2022/09/25 07:51:56;;;;;;;29.05;26.77;;;14.70;92.30;;;;;;5010360;28;20033;-76
2022/09/25 07:54:23;;;;;;;20.58;19.10;;;14.60;91.80;;;;;;5011971;28;20045;-76
2022/09/25 07:56:51;;;;;;;33.58;31.50;;;14.60;92.00;;;;;;5013064;28;20104;-76
2022/09/25 07:59:17;;;;;;;21.10;19.50;;;14.40;91.60;;;;;;5011718;28;20419;-76
2022/09/25 08:01:43;;;;;;;28.30;26.60;;;14.40;92.00;;;;;;5010950;28;20034;-76
2022/09/25 08:04:09;;;;;;;21.15;19.45;;;14.30;91.50;;;;;;5012139;28;20045;-76
2022/09/25 08:06:37;;;;;;;22.27;20.15;;;14.30;92.10;;;;;;5012916;28;20041;-76
2022/09/25 08:09:03;;;;;;;20.33;18.63;;;14.30;92.10;;;;;;4995208;28;20018;-76
2022/09/25 08:11:30;;;;;;;17.15;15.48;;;14.30;92.00;;;;;;4994981;28;20042;-76
2022/09/25 08:13:56;;;;;;;18.27;16.65;;;14.40;92.30;;;;;;4995384;28;20046;-77
2022/09/25 08:16:22;;;;;;;19.10;17.50;;;14.40;92.30;;;;;;5011882;28;20041;-76
2022/09/25 08:18:48;;;;;;;21.85;20.05;;;14.40;92.30;;;;;;5012055;28;20034;-76
2022/09/25 08:21:18;;;;;;;18.45;16.83;;;14.50;92.20;;;;;;4978377;28;20034;-76
2022/09/25 08:23:48;;;;;;;22.90;20.55;;;14.60;92.20;;;;;;4993824;28;20088;-76
2022/09/25 08:26:18;;;;;;;22.23;20.42;;;14.60;91.60;;;;;;5012534;28;20041;-76
2022/09/25 08:28:44;;;;;;;23.15;21.20;;;14.70;91.80;;;;;;5012020;28;20052;-76
2022/09/25 08:31:12;;;;;;;20.77;19.02;;;14.70;91.50;;;;;;5011578;28;20034;-76
2022/09/25 08:33:39;;;;;;;32.72;30.33;;;14.80;91.90;;;;;;5010289;28;20040;-76
2022/09/25 08:36:05;;;;;;;26.63;24.65;;;14.80;90.80;;;;;;5010756;28;20048;-76
2022/09/25 08:38:32;;;;;;;29.90;28.00;;;14.80;91.00;;;;;;5011852;28;20053;-76
2022/09/25 08:41:02;;;;;;;20.40;18.77;;;14.90;90.70;;;;;;5010487;28;20034;-76
2022/09/25 08:43:29;;;;;;;33.80;31.67;;;15.00;91.30;;;;;;4978942;28;20038;-76
2022/09/25 08:49:01;;;;;;;20.15;18.55;;;15.60;90.00;;;;;;5007481;28;20053;-76
2022/09/25 08:51:44;;;;;;;29.15;27.13;;;15.80;89.20;;;;;;5010415;28;20045;-76
2022/09/25 08:54:24;;;;;;;21.15;19.45;;;15.80;87.50;;;;;;4993970;28;20042;-76
2022/09/25 08:57:19;;;;;;;23.50;21.77;;;15.80;87.00;;;;;;5009912;28;20467;-76
2022/09/25 08:59:50;;;;;;;29.95;28.05;;;15.80;87.10;;;;;;5002626;28;20057;-76
2022/09/25 09:02:32;;;;;;;26.57;24.67;;;15.90;85.60;;;;;;4993578;28;20042;-76
2022/09/25 09:05:00;;;;;;;26.58;24.95;;;15.90;85.50;;;;;;4996129;28;20288;-76
2022/09/25 09:07:32;;;;;;;28.45;26.65;;;16.00;86.30;;;;;;4994237;28;20029;-76
2022/09/25 09:10:09;;;;;;;37.60;35.40;;;16.00;86.10;;;;;;5011384;28;20049;-77
2022/09/25 09:12:41;;;;;;;31.88;29.60;;;16.10;84.80;;;;;;5010318;28;20030;-76
2022/09/25 09:15:19;;;;;;;43.67;40.95;;;16.10;83.90;;;;;;5009347;28;20042;-77
2022/09/25 09:17:45;;;;;;;32.90;30.70;;;16.10;83.10;;;;;;5011761;28;20391;-77
2022/09/25 09:20:18;;;;;;;36.53;34.20;;;16.10;83.80;;;;;;5011303;28;20471;-77
2022/09/25 09:22:51;;;;;;;27.20;25.60;;;16.30;84.20;;;;;;4994129;28;20026;-76
2022/09/25 09:25:28;;;;;;;24.35;22.88;;;16.30;82.20;;;;;;4994411;28;20049;-76
2022/09/25 09:28:04;;;;;;;25.27;23.85;;;16.40;82.30;;;;;;5011404;28;20041;-77
2022/09/25 09:30:33;;;;;;;23.27;21.60;;;16.60;82.50;;;;;;5013139;28;20402;-76
2022/09/25 09:33:23;;;;;;;23.45;22.05;;;16.70;80.90;;;;;;5029733;28;20034;-76
2022/09/25 09:36:04;;;;;;;26.37;24.60;;;16.90;80.00;;;;;;5031101;28;20041;-77
2022/09/25 09:38:54;;;;;;;24.30;22.90;;;17.10;79.10;;;;;;5029816;28;20018;-76
2022/09/25 09:41:36;;;;;;;34.78;32.55;;;17.20;78.90;;;;;;5020212;28;20037;-76
2022/09/25 09:44:18;;;;;;;27.65;25.80;;;17.20;78.30;;;;;;5015512;28;20013;-77
2022/09/25 09:46:51;;;;;;;30.95;29.15;;;17.10;78.80;;;;;;5043028;28;20032;-77
2022/09/25 09:49:41;;;;;;;29.08;27.17;;;17.00;77.50;;;;;;5031599;28;20057;-76
2022/09/25 09:52:16;;;;;;;24.73;23.15;;;16.90;77.50;;;;;;5029520;28;20033;-76
2022/09/25 09:54:44;;;;;;;24.85;23.25;;;17.00;78.80;;;;;;5029664;28;20046;-77
2022/09/25 09:57:38;;;;;;;24.88;23.63;;;17.10;79.10;;;;;;5029622;28;20053;-77
2022/09/25 10:00:06;;;;;;;29.48;27.65;;;17.20;77.60;;;;;;5027750;28;20026;-76
2022/09/25 10:02:40;;;;;;;23.88;22.23;;;17.20;78.20;;;;;;5029573;28;20040;-76
2022/09/25 10:05:38;;;;;;;29.33;27.70;;;17.30;79.30;;;;;;5013217;28;20021;-76
2022/09/25 10:08:04;;;;;;;28.45;26.75;;;17.20;77.40;;;;;;5016157;28;20060;-76
2022/09/25 10:10:40;;;;;;;28.80;26.90;;;17.20;77.70;;;;;;5033283;28;20027;-77
2022/09/25 10:13:23;;;;;;;35.17;33.22;;;17.30;78.50;;;;;;5016507;28;20040;-77
2022/09/25 10:15:52;;;;;;;29.90;27.95;;;17.40;76.70;;;;;;5032781;28;20030;-76
2022/09/25 10:18:20;;;;;;;37.17;34.97;;;17.50;76.90;;;;;;5016972;28;20017;-76
2022/09/25 10:20:56;;;;;;;41.55;38.53;;;17.60;75.70;;;;;;5016547;28;20490;-77
2022/09/25 10:23:40;;;;;;;40.67;38.17;;;17.60;76.40;;;;;;5017585;28;20025;-77
2022/09/25 10:26:28;;;;;;;38.10;36.10;;;17.70;75.60;;;;;;5016546;28;20029;-77
2022/09/25 10:28:58;;;;;;;41.00;38.35;;;17.60;74.70;;;;;;5033496;28;20033;-77
2022/09/25 10:31:32;;;;;;;35.53;33.37;;;17.50;75.20;;;;;;5032417;28;20461;-77
2022/09/25 10:34:05;;;;;;;36.38;34.20;;;17.50;73.90;;;;;;5017033;28;20064;-77
2022/09/25 10:36:42;;;;;;;33.70;31.75;;;17.40;74.10;;;;;;5032924;28;20029;-76
2022/09/25 10:39:30;;;;;;;28.17;26.42;;;17.30;73.60;;;;;;5033718;28;20029;-77
2022/09/25 10:41:59;;;;;;;22.80;21.13;;;17.20;73.30;;;;;;5019036;28;20391;-77
2022/09/25 10:44:32;;;;;;;22.70;21.20;;;17.30;71.90;;;;;;5020674;28;20479;-77
2022/09/25 10:50:21;;;;;;;22.77;21.48;;;17.50;70.90;;;;;;5020563;28;20394;-77
2022/09/25 10:52:58;;;;;;;25.30;23.95;;;17.60;70.70;;;;;;5013805;28;20041;-76
2022/09/25 10:55:28;;;;;;;27.33;25.50;;;17.80;69.80;;;;;;5012772;28;20038;-77
2022/09/25 10:58:10;;;;;;;28.10;26.45;;;17.90;68.20;;;;;;5012583;28;20018;-77
2022/09/25 11:00:45;;;;;;;33.67;31.90;;;18.00;66.40;;;;;;5008720;28;20043;-77
2022/09/25 11:03:23;;;;;;;32.25;30.35;;;18.20;63.10;;;;;;4991739;28;20030;-77
2022/09/25 11:05:52;;;;;;;37.30;35.10;;;18.40;63.70;;;;;;4992356;28;20038;-77
2022/09/25 11:08:22;;;;;;;22.52;21.33;;;18.50;61.40;;;;;;4992732;28;20361;-77
2022/09/25 11:10:58;;;;;;;22.92;21.70;;;18.70;59.30;;;;;;4992818;28;20033;-77
2022/09/25 11:13:35;;;;;;;21.27;20.13;;;18.60;57.90;;;;;;4992571;28;20033;-77
2022/09/25 11:16:09;;;;;;;20.90;19.80;;;18.60;58.90;;;;;;4992221;28;20395;-77
2022/09/25 11:18:50;;;;;;;19.70;18.33;;;18.80;57.40;;;;;;4991650;28;20034;-77
2022/09/25 11:21:19;;;;;;;22.23;20.73;;;18.70;55.50;;;;;;4992671;28;20471;-77
2022/09/25 11:23:58;;;;;;;19.83;18.48;;;18.80;57.30;;;;;;4993607;28;20034;-77
2022/09/25 11:26:30;;;;;;;20.15;18.95;;;18.90;56.50;;;;;;4992158;28;20053;-77
2022/09/25 11:29:24;;;;;;;18.58;17.63;;;19.00;56.30;;;;;;4988180;28;20034;-77
2022/09/25 11:31:58;;;;;;;18.48;17.48;;;19.00;53.40;;;;;;4990600;28;20046;-77
2022/09/25 11:34:52;;;;;;;21.20;19.67;;;19.00;54.50;;;;;;4973918;28;20038;-77
2022/09/25 11:37:20;;;;;;;24.75;23.30;;;19.10;54.80;;;;;;4989039;28;20042;-77
2022/09/25 11:42:50;;;;;;;23.48;22.10;;;19.00;54.80;;;;;;4981213;28;20045;-77
2022/09/25 11:45:29;;;;;;;21.38;20.17;;;19.10;53.90;;;;;;4974497;28;20038;-77
2022/09/25 11:48:05;;;;;;;20.45;19.15;;;19.10;54.30;;;;;;4971262;28;20546;-77
2022/09/25 11:50:48;;;;;;;20.73;19.60;;;19.20;54.40;;;;;;4954996;28;20055;-77
2022/09/25 11:53:21;;;;;;;22.77;21.48;;;19.30;54.00;;;;;;4940899;28;20392;-77
2022/09/25 11:56:02;;;;;;;21.20;20.00;;;19.20;52.40;;;;;;4970999;28;20080;-77
2022/09/25 11:58:42;;;;;;;21.60;20.30;;;19.00;52.60;;;;;;4955381;28;20051;-77
2022/09/25 12:01:15;;;;;;;24.55;23.25;;;18.90;52.90;;;;;;4956090;28;20061;-76
2022/09/25 12:03:41;;;;;;;23.15;21.80;;;19.00;53.80;;;;;;4971364;28;20037;-77
2022/09/25 12:06:47;;;;;;;22.63;21.20;;;19.10;51.30;;;;;;4970354;28;20534;-77
2022/09/25 12:09:17;;;;;;;22.60;21.30;;;19.20;52.60;;;;;;4992965;28;20038;-77
2022/09/25 12:11:46;;;;;;;25.02;23.73;;;19.30;52.10;;;;;;5044070;28;20038;-77
2022/09/25 12:14:24;;;;;;;23.95;22.65;;;19.40;49.70;;;;;;5043949;28;20050;-77
2022/09/25 12:17:13;;;;;;;25.83;24.52;;;19.30;51.10;;;;;;5028764;28;20045;-77
2022/09/25 12:19:52;;;;;;;25.63;24.13;;;19.40;49.80;;;;;;5005431;28;20037;-77
2022/09/25 12:22:33;;;;;;;31.35;29.35;;;19.50;50.60;;;;;;5007806;28;20033;-77
2022/09/25 12:25:00;;;;;;;;;;;19.70;49.90;;;;;;4992521;28;20033;-77
2022/09/25 12:27:43;;;;;;;25.92;24.45;;;19.60;48.60;;;;;;4992608;28;19910;-77
2022/09/25 12:30:12;;;;;;;27.67;26.02;;;19.70;49.30;;;;;;5011361;28;20034;-77
2022/09/25 12:32:57;;;;;;;25.15;23.85;;;19.70;49.70;;;;;;5012132;28;20018;-77
2022/09/25 12:35:37;;;;;;;24.50;23.17;;;19.90;49.90;;;;;;5010435;28;20045;-77
2022/09/25 12:38:39;;;;;;;25.83;24.38;;;19.90;50.30;;;;;;5010650;28;20049;-77
2022/09/25 12:41:20;;;;;;;24.52;23.23;;;19.90;50.80;;;;;;5009176;28;20038;-77
2022/09/25 12:43:46;;;;;;;22.92;21.77;;;20.00;51.40;;;;;;4994455;28;20046;-77
2022/09/25 12:46:12;;;;;;;21.95;20.85;;;20.10;51.10;;;;;;5009117;28;20491;-77
2022/09/25 12:48:42;;;;;;;23.38;22.10;;;20.00;51.10;;;;;;5009250;28;20557;-76
2022/09/25 12:51:39;;;;;;;22.75;21.55;;;19.80;50.90;;;;;;4993299;28;20033;-77
2022/09/25 12:54:23;;;;;;;24.02;22.75;;;19.80;51.70;;;;;;4950671;29;20039;-77
2022/09/25 12:56:57;;;;;;;23.83;22.63;;;20.00;50.90;;;;;;4950764;29;20043;-77
2022/09/25 12:59:47;;;;;;;22.95;21.55;;;20.00;50.20;;;;;;4935156;29;20046;-77
2022/09/25 13:02:21;;;;;;;22.30;20.92;;;19.70;49.90;;;;;;4950400;28;20039;-76
2022/09/25 13:05:10;;;;;;;23.42;21.98;;;19.70;50.70;;;;;;4950909;29;20043;-77
2022/09/25 13:07:54;;;;;;;24.67;23.38;;;19.90;50.30;;;;;;4931405;29;20044;-77
2022/09/25 13:10:21;;;;;;;24.38;22.98;;;20.20;50.40;;;;;;4930316;28;20603;-77